KCHO

Charlottesville-Albemarle Airport

Airport
ICAO code
KCHO
IATA Code
CHO
Summary
ICAO Region
NAM
ICAO Territory
Location

Charlottesville, Virginia

Serving
Charlottesville
Elevation
640 ft
Coordinates
38° 8' 22" N , 78° 26' 58" W
KCC
Metar
KCHO 192153Z VRB04KT 10SM CLR 32/16 A3029 RMK AO2 SLP251 T03220161

Description

Charlottesville-Albemarle Airport is a public use airport located 8 nm north of Charlottesville, in Albemarle County, Virginia, USA.

Airport map

Aerial View

SKYbrary Partners:

Safety knowledge contributed by: